sensor_id;sensor_type;location;lat;lon;timestamp;temperature;humidity
16247;DHT22;8231;50.866;7.944;2024-01-06T00:01:22;4.90;99.90
16247;DHT22;8231;50.866;7.944;2024-01-06T00:03:50;4.90;99.90
16247;DHT22;8231;50.866;7.944;2024-01-06T00:06:18;4.80;99.90
16247;DHT22;8231;50.866;7.944;2024-01-06T00:08:47;4.80;99.90
16247;DHT22;8231;50.866;7.944;2024-01-06T00:11:20;4.80;99.90
16247;DHT22;8231;50.866;7.944;2024-01-06T00:13:48;4.80;99.90
16247;DHT22;8231;50.866;7.944;2024-01-06T00:16:19;4.80;99.90
16247;DHT22;8231;50.866;7.944;2024-01-06T00:18:47;4.90;99.90
16247;DHT22;8231;50.866;7.944;2024-01-06T00:21:16;4.90;99.90
16247;DHT22;8231;50.866;7.944;2024-01-06T00:23:44;4.80;99.90
16247;DHT22;8231;50.866;7.944;2024-01-06T00:26:12;4.90;99.90
16247;DHT22;8231;50.866;7.944;2024-01-06T00:28:40;4.90;99.90
16247;DHT22;8231;50.866;7.944;2024-01-06T00:31:08;4.90;99.90
16247;DHT22;8231;50.866;7.944;2024-01-06T00:33:38;4.90;99.90
16247;DHT22;8231;50.866;7.944;2024-01-06T00:36:07;4.90;99.90
16247;DHT22;8231;50.866;7.944;2024-01-06T00:38:36;4.90;99.90
16247;DHT22;8231;50.866;7.944;2024-01-06T00:41:04;4.90;99.90
16247;DHT22;8231;50.866;7.944;2024-01-06T00:43:32;4.90;99.90
16247;DHT22;8231;50.866;7.944;2024-01-06T00:46:00;4.90;99.90
16247;DHT22;8231;50.866;7.944;2024-01-06T00:48:29;4.90;99.90
16247;DHT22;8231;50.866;7.944;2024-01-06T00:50:59;4.90;99.90
16247;DHT22;8231;50.866;7.944;2024-01-06T00:53:27;4.90;99.90
16247;DHT22;8231;50.866;7.944;2024-01-06T00:55:55;4.90;99.90
16247;DHT22;8231;50.866;7.944;2024-01-06T00:58:23;4.90;99.90
16247;DHT22;8231;50.866;7.944;2024-01-06T01:00:51;4.90;99.90
16247;DHT22;8231;50.866;7.944;2024-01-06T01:03:19;4.90;99.90
16247;DHT22;8231;50.866;7.944;2024-01-06T01:05:48;4.90;99.90
16247;DHT22;8231;50.866;7.944;2024-01-06T01:08:17;4.90;99.90
16247;DHT22;8231;50.866;7.944;2024-01-06T01:10:45;4.90;99.90
16247;DHT22;8231;50.866;7.944;2024-01-06T01:13:13;4.90;99.90
16247;DHT22;8231;50.866;7.944;2024-01-06T01:15:41;5.00;99.90
16247;DHT22;8231;50.866;7.944;2024-01-06T01:18:10;5.40;99.90
16247;DHT22;8231;50.866;7.944;2024-01-06T01:20:38;5.10;99.90
16247;DHT22;8231;50.866;7.944;2024-01-06T01:23:08;5.00;99.90
16247;DHT22;8231;50.866;7.944;2024-01-06T01:25:38;5.00;99.90
16247;DHT22;8231;50.866;7.944;2024-01-06T01:28:06;5.00;99.90
16247;DHT22;8231;50.866;7.944;2024-01-06T01:30:35;5.00;99.90
16247;DHT22;8231;50.866;7.944;2024-01-06T01:33:03;5.00;99.90
16247;DHT22;8231;50.866;7.944;2024-01-06T01:35:32;5.00;99.90
16247;DHT22;8231;50.866;7.944;2024-01-06T01:38:00;5.00;99.90
16247;DHT22;8231;50.866;7.944;2024-01-06T01:40:29;5.00;99.90
16247;DHT22;8231;50.866;7.944;2024-01-06T01:42:58;5.00;99.90
16247;DHT22;8231;50.866;7.944;2024-01-06T01:45:27;5.00;99.90
16247;DHT22;8231;50.866;7.944;2024-01-06T01:47:55;5.10;99.90
16247;DHT22;8231;50.866;7.944;2024-01-06T01:50:23;5.00;99.90
16247;DHT22;8231;50.866;7.944;2024-01-06T01:52:54;5.10;99.90
16247;DHT22;8231;50.866;7.944;2024-01-06T01:55:22;5.00;99.90
16247;DHT22;8231;50.866;7.944;2024-01-06T01:57:51;5.10;99.90
16247;DHT22;8231;50.866;7.944;2024-01-06T02:00:21;5.10;99.90
16247;DHT22;8231;50.866;7.944;2024-01-06T02:02:53;5.10;99.90
16247;DHT22;8231;50.866;7.944;2024-01-06T02:05:21;5.10;99.90
16247;DHT22;8231;50.866;7.944;2024-01-06T02:07:49;5.10;99.90
16247;DHT22;8231;50.866;7.944;2024-01-06T02:10:18;5.00;99.90
16247;DHT22;8231;50.866;7.944;2024-01-06T02:12:47;5.10;99.90
16247;DHT22;8231;50.866;7.944;2024-01-06T02:15:15;5.00;99.90
16247;DHT22;8231;50.866;7.944;2024-01-06T02:17:45;5.10;99.90
16247;DHT22;8231;50.866;7.944;2024-01-06T02:20:13;5.00;99.90
16247;DHT22;8231;50.866;7.944;2024-01-06T02:22:43;5.10;99.90
16247;DHT22;8231;50.866;7.944;2024-01-06T02:25:11;5.00;99.90
16247;DHT22;8231;50.866;7.944;2024-01-06T02:27:40;5.00;99.90
16247;DHT22;8231;50.866;7.944;2024-01-06T02:30:09;4.80;99.90
16247;DHT22;8231;50.866;7.944;2024-01-06T02:32:38;4.70;99.90
16247;DHT22;8231;50.866;7.944;2024-01-06T02:35:07;4.60;99.90
16247;DHT22;8231;50.866;7.944;2024-01-06T02:37:35;4.50;99.90
16247;DHT22;8231;50.866;7.944;2024-01-06T02:40:06;4.50;99.90
16247;DHT22;8231;50.866;7.944;2024-01-06T02:42:34;4.50;99.90
16247;DHT22;8231;50.866;7.944;2024-01-06T02:45:02;4.50;99.90
16247;DHT22;8231;50.866;7.944;2024-01-06T02:47:31;4.50;99.90
16247;DHT22;8231;50.866;7.944;2024-01-06T02:49:59;4.50;99.90
16247;DHT22;8231;50.866;7.944;2024-01-06T02:52:27;4.60;99.90
16247;DHT22;8231;50.866;7.944;2024-01-06T02:54:55;4.60;99.90
16247;DHT22;8231;50.866;7.944;2024-01-06T02:57:24;4.60;99.90
16247;DHT22;8231;50.866;7.944;2024-01-06T02:59:53;4.60;99.90
16247;DHT22;8231;50.866;7.944;2024-01-06T03:02:21;4.60;99.90
16247;DHT22;8231;50.866;7.944;2024-01-06T03:04:49;4.60;99.90
16247;DHT22;8231;50.866;7.944;2024-01-06T03:07:18;4.70;99.90
16247;DHT22;8231;50.866;7.944;2024-01-06T03:09:46;4.70;99.90
16247;DHT22;8231;50.866;7.944;2024-01-06T03:12:14;4.70;99.90
16247;DHT22;8231;50.866;7.944;2024-01-06T03:14:43;4.70;99.90
16247;DHT22;8231;50.866;7.944;2024-01-06T03:17:12;4.70;99.90
16247;DHT22;8231;50.866;7.944;2024-01-06T03:19:40;4.80;99.90
16247;DHT22;8231;50.866;7.944;2024-01-06T03:22:09;4.80;99.90
16247;DHT22;8231;50.866;7.944;2024-01-06T03:24:37;4.80;99.90
16247;DHT22;8231;50.866;7.944;2024-01-06T03:27:05;4.80;99.90
16247;DHT22;8231;50.866;7.944;2024-01-06T03:29:33;4.80;99.90
16247;DHT22;8231;50.866;7.944;2024-01-06T03:32:03;4.80;99.90
16247;DHT22;8231;50.866;7.944;2024-01-06T03:34:31;4.80;99.90
16247;DHT22;8231;50.866;7.944;2024-01-06T03:36:59;4.80;99.90
16247;DHT22;8231;50.866;7.944;2024-01-06T03:39:28;4.80;99.90
16247;DHT22;8231;50.866;7.944;2024-01-06T03:41:56;4.80;99.90
16247;DHT22;8231;50.866;7.944;2024-01-06T03:44:24;4.80;99.90
16247;DHT22;8231;50.866;7.944;2024-01-06T03:46:57;4.80;99.90
16247;DHT22;8231;50.866;7.944;2024-01-06T03:49:26;4.80;99.90
16247;DHT22;8231;50.866;7.944;2024-01-06T03:51:55;4.80;99.90
16247;DHT22;8231;50.866;7.944;2024-01-06T03:54:23;4.80;99.90
16247;DHT22;8231;50.866;7.944;2024-01-06T03:56:51;4.80;99.90
16247;DHT22;8231;50.866;7.944;2024-01-06T03:59:20;4.80;99.90
16247;DHT22;8231;50.866;7.944;2024-01-06T04:01:48;4.90;99.90
16247;DHT22;8231;50.866;7.944;2024-01-06T04:04:16;4.90;99.90
16247;DHT22;8231;50.866;7.944;2024-01-06T04:06:46;4.90;99.90
16247;DHT22;8231;50.866;7.944;2024-01-06T04:09:14;4.90;99.90
16247;DHT22;8231;50.866;7.944;2024-01-06T04:11:44;4.90;99.90
16247;DHT22;8231;50.866;7.944;2024-01-06T04:14:13;4.90;99.90
16247;DHT22;8231;50.866;7.944;2024-01-06T04:16:41;4.90;99.90
16247;DHT22;8231;50.866;7.944;2024-01-06T04:19:09;4.90;99.90
16247;DHT22;8231;50.866;7.944;2024-01-06T04:21:40;4.90;99.90
16247;DHT22;8231;50.866;7.944;2024-01-06T04:24:09;4.90;99.90
16247;DHT22;8231;50.866;7.944;2024-01-06T04:26:38;4.90;99.90
16247;DHT22;8231;50.866;7.944;2024-01-06T04:29:06;4.90;99.90
16247;DHT22;8231;50.866;7.944;2024-01-06T04:31:34;4.90;99.90
16247;DHT22;8231;50.866;7.944;2024-01-06T04:34:02;5.00;99.90
16247;DHT22;8231;50.866;7.944;2024-01-06T04:36:31;4.90;99.90
16247;DHT22;8231;50.866;7.944;2024-01-06T04:38:59;4.90;99.90
16247;DHT22;8231;50.866;7.944;2024-01-06T04:41:28;5.00;99.90
16247;DHT22;8231;50.866;7.944;2024-01-06T04:43:57;5.00;99.90
16247;DHT22;8231;50.866;7.944;2024-01-06T04:46:25;5.00;99.90
16247;DHT22;8231;50.866;7.944;2024-01-06T04:48:53;5.00;99.90
16247;DHT22;8231;50.866;7.944;2024-01-06T04:51:21;5.00;99.90
16247;DHT22;8231;50.866;7.944;2024-01-06T04:53:50;5.00;99.90
16247;DHT22;8231;50.866;7.944;2024-01-06T04:56:18;5.00;99.90
16247;DHT22;8231;50.866;7.944;2024-01-06T04:58:48;5.00;99.90
16247;DHT22;8231;50.866;7.944;2024-01-06T05:01:16;5.10;99.90
16247;DHT22;8231;50.866;7.944;2024-01-06T05:03:44;5.10;99.90
16247;DHT22;8231;50.866;7.944;2024-01-06T05:06:13;5.10;99.90
16247;DHT22;8231;50.866;7.944;2024-01-06T05:08:41;5.00;99.90
16247;DHT22;8231;50.866;7.944;2024-01-06T05:11:12;5.10;99.90
16247;DHT22;8231;50.866;7.944;2024-01-06T05:13:40;5.10;99.90
16247;DHT22;8231;50.866;7.944;2024-01-06T05:16:09;5.10;99.90
16247;DHT22;8231;50.866;7.944;2024-01-06T05:18:38;5.10;99.90
16247;DHT22;8231;50.866;7.944;2024-01-06T05:21:07;5.10;99.90
16247;DHT22;8231;50.866;7.944;2024-01-06T05:23:35;5.10;99.90
16247;DHT22;8231;50.866;7.944;2024-01-06T05:26:03;5.10;99.90
16247;DHT22;8231;50.866;7.944;2024-01-06T05:28:31;5.10;99.90
16247;DHT22;8231;50.866;7.944;2024-01-06T05:30:59;5.10;99.90
16247;DHT22;8231;50.866;7.944;2024-01-06T05:33:29;5.10;99.90
16247;DHT22;8231;50.866;7.944;2024-01-06T05:35:58;5.10;99.90
16247;DHT22;8231;50.866;7.944;2024-01-06T05:38:26;5.10;99.90
16247;DHT22;8231;50.866;7.944;2024-01-06T05:40:54;5.10;99.90
16247;DHT22;8231;50.866;7.944;2024-01-06T05:43:22;5.20;99.90
16247;DHT22;8231;50.866;7.944;2024-01-06T05:45:50;5.10;99.90
16247;DHT22;8231;50.866;7.944;2024-01-06T05:48:19;5.20;99.90
16247;DHT22;8231;50.866;7.944;2024-01-06T05:50:49;5.10;99.90
16247;DHT22;8231;50.866;7.944;2024-01-06T05:53:17;5.20;99.90
16247;DHT22;8231;50.866;7.944;2024-01-06T05:55:45;5.20;99.90
16247;DHT22;8231;50.866;7.944;2024-01-06T05:58:13;5.20;99.90
16247;DHT22;8231;50.866;7.944;2024-01-06T06:00:41;5.20;99.90
16247;DHT22;8231;50.866;7.944;2024-01-06T06:03:09;5.20;99.90
16247;DHT22;8231;50.866;7.944;2024-01-06T06:05:38;5.20;99.90
16247;DHT22;8231;50.866;7.944;2024-01-06T06:08:07;5.20;99.90
16247;DHT22;8231;50.866;7.944;2024-01-06T06:10:35;5.20;99.90
16247;DHT22;8231;50.866;7.944;2024-01-06T06:13:18;5.20;99.90
16247;DHT22;8231;50.866;7.944;2024-01-06T06:15:46;5.20;99.90
16247;DHT22;8231;50.866;7.944;2024-01-06T06:18:15;5.20;99.90
16247;DHT22;8231;50.866;7.944;2024-01-06T06:20:43;5.20;99.90
16247;DHT22;8231;50.866;7.944;2024-01-06T06:23:13;5.40;99.90
16247;DHT22;8231;50.866;7.944;2024-01-06T06:25:41;5.20;99.90
16247;DHT22;8231;50.866;7.944;2024-01-06T06:28:09;5.20;99.90
16247;DHT22;8231;50.866;7.944;2024-01-06T06:30:37;5.20;99.90
16247;DHT22;8231;50.866;7.944;2024-01-06T06:33:06;5.20;99.90
16247;DHT22;8231;50.866;7.944;2024-01-06T06:35:35;5.20;99.90
16247;DHT22;8231;50.866;7.944;2024-01-06T06:38:03;5.20;99.90
16247;DHT22;8231;50.866;7.944;2024-01-06T06:40:33;5.20;99.90
16247;DHT22;8231;50.866;7.944;2024-01-06T06:43:01;5.20;99.90
16247;DHT22;8231;50.866;7.944;2024-01-06T06:45:29;5.20;99.90
16247;DHT22;8231;50.866;7.944;2024-01-06T06:47:57;5.20;99.90
16247;DHT22;8231;50.866;7.944;2024-01-06T06:50:25;5.20;99.90
16247;DHT22;8231;50.866;7.944;2024-01-06T06:52:53;5.10;99.90
16247;DHT22;8231;50.866;7.944;2024-01-06T06:55:22;5.20;99.90
16247;DHT22;8231;50.866;7.944;2024-01-06T06:57:52;5.20;99.90
16247;DHT22;8231;50.866;7.944;2024-01-06T07:00:20;5.20;99.90
16247;DHT22;8231;50.866;7.944;2024-01-06T07:02:48;5.20;99.90
16247;DHT22;8231;50.866;7.944;2024-01-06T07:05:17;5.20;99.90
16247;DHT22;8231;50.866;7.944;2024-01-06T07:07:45;5.20;99.90
16247;DHT22;8231;50.866;7.944;2024-01-06T07:10:13;5.20;99.90
16247;DHT22;8231;50.866;7.944;2024-01-06T07:12:42;5.20;99.90
16247;DHT22;8231;50.866;7.944;2024-01-06T07:15:12;5.20;99.90
16247;DHT22;8231;50.866;7.944;2024-01-06T07:17:40;5.20;99.90
16247;DHT22;8231;50.866;7.944;2024-01-06T07:20:09;5.20;99.90
16247;DHT22;8231;50.866;7.944;2024-01-06T07:22:37;5.20;99.90
16247;DHT22;8231;50.866;7.944;2024-01-06T07:25:06;5.10;99.90
16247;DHT22;8231;50.866;7.944;2024-01-06T07:27:34;5.10;99.90
16247;DHT22;8231;50.866;7.944;2024-01-06T07:30:03;5.10;99.90
16247;DHT22;8231;50.866;7.944;2024-01-06T07:32:33;5.10;99.90
16247;DHT22;8231;50.866;7.944;2024-01-06T07:35:01;5.10;99.90
16247;DHT22;8231;50.866;7.944;2024-01-06T07:37:34;5.20;99.90
16247;DHT22;8231;50.866;7.944;2024-01-06T07:40:02;5.20;99.90
16247;DHT22;8231;50.866;7.944;2024-01-06T07:42:30;5.20;99.90
16247;DHT22;8231;50.866;7.944;2024-01-06T07:44:59;5.20;99.90
16247;DHT22;8231;50.866;7.944;2024-01-06T07:47:27;5.20;99.90
16247;DHT22;8231;50.866;7.944;2024-01-06T07:49:57;5.20;99.90
16247;DHT22;8231;50.866;7.944;2024-01-06T07:52:25;5.20;99.90
16247;DHT22;8231;50.866;7.944;2024-01-06T07:54:53;5.30;99.90
16247;DHT22;8231;50.866;7.944;2024-01-06T07:57:21;5.30;99.90
16247;DHT22;8231;50.866;7.944;2024-01-06T07:59:49;5.30;99.90
16247;DHT22;8231;50.866;7.944;2024-01-06T08:02:17;5.20;99.90
16247;DHT22;8231;50.866;7.944;2024-01-06T08:04:45;5.20;99.90
16247;DHT22;8231;50.866;7.944;2024-01-06T08:07:15;5.20;99.90
16247;DHT22;8231;50.866;7.944;2024-01-06T08:09:43;5.20;99.90
16247;DHT22;8231;50.866;7.944;2024-01-06T08:12:12;5.20;99.90
16247;DHT22;8231;50.866;7.944;2024-01-06T08:14:40;5.90;99.90
16247;DHT22;8231;50.866;7.944;2024-01-06T08:17:09;5.30;99.90
16247;DHT22;8231;50.866;7.944;2024-01-06T08:19:37;5.30;99.90
16247;DHT22;8231;50.866;7.944;2024-01-06T08:22:06;5.30;99.90
16247;DHT22;8231;50.866;7.944;2024-01-06T08:24:35;5.30;99.90
16247;DHT22;8231;50.866;7.944;2024-01-06T08:27:04;5.30;99.90
16247;DHT22;8231;50.866;7.944;2024-01-06T08:29:32;5.30;99.90
16247;DHT22;8231;50.866;7.944;2024-01-06T08:32:02;5.40;99.90
16247;DHT22;8231;50.866;7.944;2024-01-06T08:34:30;5.40;99.90
16247;DHT22;8231;50.866;7.944;2024-01-06T08:36:59;5.40;99.90
16247;DHT22;8231;50.866;7.944;2024-01-06T08:39:27;5.40;99.90
16247;DHT22;8231;50.866;7.944;2024-01-06T08:41:57;5.50;99.90
16247;DHT22;8231;50.866;7.944;2024-01-06T08:44:28;5.50;99.90
16247;DHT22;8231;50.866;7.944;2024-01-06T08:46:56;5.50;99.90
16247;DHT22;8231;50.866;7.944;2024-01-06T08:49:24;5.50;99.90
16247;DHT22;8231;50.866;7.944;2024-01-06T08:51:53;5.50;99.90
16247;DHT22;8231;50.866;7.944;2024-01-06T08:54:21;5.50;99.90
16247;DHT22;8231;50.866;7.944;2024-01-06T08:56:49;5.50;99.90
16247;DHT22;8231;50.866;7.944;2024-01-06T08:59:19;5.50;99.90
16247;DHT22;8231;50.866;7.944;2024-01-06T09:01:47;5.50;99.90
16247;DHT22;8231;50.866;7.944;2024-01-06T09:04:16;5.60;99.90
16247;DHT22;8231;50.866;7.944;2024-01-06T09:06:44;5.60;99.90
16247;DHT22;8231;50.866;7.944;2024-01-06T09:09:13;5.60;99.90
16247;DHT22;8231;50.866;7.944;2024-01-06T09:11:42;5.60;99.90
16247;DHT22;8231;50.866;7.944;2024-01-06T09:14:13;5.60;99.90
16247;DHT22;8231;50.866;7.944;2024-01-06T09:16:42;5.60;99.90
16247;DHT22;8231;50.866;7.944;2024-01-06T09:19:10;5.60;99.90
16247;DHT22;8231;50.866;7.944;2024-01-06T09:21:39;5.60;99.90
16247;DHT22;8231;50.866;7.944;2024-01-06T09:24:07;5.60;99.90
16247;DHT22;8231;50.866;7.944;2024-01-06T09:26:36;5.60;99.90
16247;DHT22;8231;50.866;7.944;2024-01-06T09:29:04;5.50;99.90
16247;DHT22;8231;50.866;7.944;2024-01-06T09:31:32;5.50;99.90
16247;DHT22;8231;50.866;7.944;2024-01-06T09:34:02;5.40;99.90
16247;DHT22;8231;50.866;7.944;2024-01-06T09:36:31;5.40;99.90
16247;DHT22;8231;50.866;7.944;2024-01-06T09:38:59;5.50;99.90
16247;DHT22;8231;50.866;7.944;2024-01-06T09:41:27;5.50;99.90
16247;DHT22;8231;50.866;7.944;2024-01-06T09:43:56;5.50;99.90
16247;DHT22;8231;50.866;7.944;2024-01-06T09:46:25;5.50;99.90
16247;DHT22;8231;50.866;7.944;2024-01-06T09:48:55;5.60;99.90
16247;DHT22;8231;50.866;7.944;2024-01-06T09:51:26;5.60;99.90
16247;DHT22;8231;50.866;7.944;2024-01-06T09:53:58;5.70;99.90
16247;DHT22;8231;50.866;7.944;2024-01-06T09:56:28;5.70;99.90
16247;DHT22;8231;50.866;7.944;2024-01-06T09:58:57;5.70;99.90
16247;DHT22;8231;50.866;7.944;2024-01-06T10:01:25;5.70;99.90
16247;DHT22;8231;50.866;7.944;2024-01-06T10:03:53;5.80;99.90
16247;DHT22;8231;50.866;7.944;2024-01-06T10:06:21;5.80;99.90
16247;DHT22;8231;50.866;7.944;2024-01-06T10:08:52;5.90;99.90
16247;DHT22;8231;50.866;7.944;2024-01-06T10:11:22;5.90;99.90
16247;DHT22;8231;50.866;7.944;2024-01-06T10:13:50;5.90;99.90
16247;DHT22;8231;50.866;7.944;2024-01-06T10:16:19;5.90;99.90
16247;DHT22;8231;50.866;7.944;2024-01-06T10:18:48;6.00;99.90
16247;DHT22;8231;50.866;7.944;2024-01-06T10:21:20;6.00;99.90
16247;DHT22;8231;50.866;7.944;2024-01-06T10:23:51;6.10;99.90
16247;DHT22;8231;50.866;7.944;2024-01-06T10:26:19;6.10;99.90
16247;DHT22;8231;50.866;7.944;2024-01-06T10:28:48;6.10;99.90
16247;DHT22;8231;50.866;7.944;2024-01-06T10:31:16;6.00;99.90
16247;DHT22;8231;50.866;7.944;2024-01-06T10:33:46;6.00;99.90
16247;DHT22;8231;50.866;7.944;2024-01-06T10:36:14;5.90;99.90
16247;DHT22;8231;50.866;7.944;2024-01-06T10:38:44;5.90;99.90
16247;DHT22;8231;50.866;7.944;2024-01-06T10:41:15;5.80;99.90
16247;DHT22;8231;50.866;7.944;2024-01-06T10:43:44;5.80;99.90
16247;DHT22;8231;50.866;7.944;2024-01-06T10:46:14;5.70;99.90
16247;DHT22;8231;50.866;7.944;2024-01-06T10:48:44;5.70;99.90
16247;DHT22;8231;50.866;7.944;2024-01-06T10:51:14;5.60;99.90
16247;DHT22;8231;50.866;7.944;2024-01-06T10:53:43;5.60;99.90
16247;DHT22;8231;50.866;7.944;2024-01-06T10:56:11;5.60;99.90
16247;DHT22;8231;50.866;7.944;2024-01-06T10:58:45;5.60;99.90
16247;DHT22;8231;50.866;7.944;2024-01-06T11:01:16;5.60;99.90
16247;DHT22;8231;50.866;7.944;2024-01-06T11:03:48;5.60;99.90
16247;DHT22;8231;50.866;7.944;2024-01-06T11:06:17;5.60;99.90
16247;DHT22;8231;50.866;7.944;2024-01-06T11:08:51;5.60;99.90
16247;DHT22;8231;50.866;7.944;2024-01-06T11:11:21;5.60;99.90
16247;DHT22;8231;50.866;7.944;2024-01-06T11:13:51;5.60;99.90
16247;DHT22;8231;50.866;7.944;2024-01-06T11:16:33;5.60;99.90
16247;DHT22;8231;50.866;7.944;2024-01-06T11:19:02;5.60;99.90
16247;DHT22;8231;50.866;7.944;2024-01-06T11:21:33;5.50;99.90
16247;DHT22;8231;50.866;7.944;2024-01-06T11:24:15;5.50;99.90
16247;DHT22;8231;50.866;7.944;2024-01-06T11:26:45;5.50;99.90
16247;DHT22;8231;50.866;7.944;2024-01-06T11:29:15;5.50;99.90
16247;DHT22;8231;50.866;7.944;2024-01-06T11:31:43;5.50;99.90
16247;DHT22;8231;50.866;7.944;2024-01-06T11:34:14;5.50;99.90
16247;DHT22;8231;50.866;7.944;2024-01-06T11:36:43;5.50;99.90
16247;DHT22;8231;50.866;7.944;2024-01-06T11:39:34;5.50;99.90
16247;DHT22;8231;50.866;7.944;2024-01-06T11:42:03;5.50;99.90
16247;DHT22;8231;50.866;7.944;2024-01-06T11:44:38;5.40;99.90
16247;DHT22;8231;50.866;7.944;2024-01-06T11:47:08;5.40;99.90
16247;DHT22;8231;50.866;7.944;2024-01-06T11:49:38;5.40;99.90
16247;DHT22;8231;50.866;7.944;2024-01-06T11:52:07;5.40;99.90
16247;DHT22;8231;50.866;7.944;2024-01-06T11:54:35;5.40;99.90
16247;DHT22;8231;50.866;7.944;2024-01-06T11:57:04;5.40;99.90
16247;DHT22;8231;50.866;7.944;2024-01-06T11:59:32;5.30;99.90
16247;DHT22;8231;50.866;7.944;2024-01-06T12:02:01;5.30;99.90
16247;DHT22;8231;50.866;7.944;2024-01-06T12:04:30;5.30;99.90
16247;DHT22;8231;50.866;7.944;2024-01-06T12:07:05;5.30;99.90
16247;DHT22;8231;50.866;7.944;2024-01-06T12:09:34;5.30;99.90
16247;DHT22;8231;50.866;7.944;2024-01-06T12:12:04;5.30;99.90
16247;DHT22;8231;50.866;7.944;2024-01-06T12:14:33;5.30;99.90
16247;DHT22;8231;50.866;7.944;2024-01-06T12:17:04;5.30;99.90
16247;DHT22;8231;50.866;7.944;2024-01-06T12:19:33;5.20;99.90
16247;DHT22;8231;50.866;7.944;2024-01-06T12:22:06;5.20;99.90
16247;DHT22;8231;50.866;7.944;2024-01-06T12:24:35;5.20;99.90
16247;DHT22;8231;50.866;7.944;2024-01-06T12:27:06;5.20;99.90
16247;DHT22;8231;50.866;7.944;2024-01-06T12:29:37;5.20;99.90
16247;DHT22;8231;50.866;7.944;2024-01-06T12:32:07;5.20;99.90
16247;DHT22;8231;50.866;7.944;2024-01-06T12:34:36;5.20;99.90
16247;DHT22;8231;50.866;7.944;2024-01-06T12:37:06;5.20;99.90
16247;DHT22;8231;50.866;7.944;2024-01-06T12:39:35;5.20;99.90
16247;DHT22;8231;50.866;7.944;2024-01-06T12:42:04;5.20;99.90
16247;DHT22;8231;50.866;7.944;2024-01-06T12:44:32;5.20;99.90
16247;DHT22;8231;50.866;7.944;2024-01-06T12:47:04;5.50;99.90
16247;DHT22;8231;50.866;7.944;2024-01-06T12:49:33;5.20;99.90
16247;DHT22;8231;50.866;7.944;2024-01-06T12:52:05;5.20;99.90
16247;DHT22;8231;50.866;7.944;2024-01-06T12:54:34;5.20;99.90
16247;DHT22;8231;50.866;7.944;2024-01-06T12:57:02;5.20;99.90
16247;DHT22;8231;50.866;7.944;2024-01-06T12:59:30;5.20;99.90
16247;DHT22;8231;50.866;7.944;2024-01-06T13:01:58;5.20;99.90
16247;DHT22;8231;50.866;7.944;2024-01-06T13:04:27;5.20;99.90
16247;DHT22;8231;50.866;7.944;2024-01-06T13:06:56;5.10;99.90
16247;DHT22;8231;50.866;7.944;2024-01-06T13:09:29;5.10;99.90
16247;DHT22;8231;50.866;7.944;2024-01-06T13:11:58;5.10;99.90
16247;DHT22;8231;50.866;7.944;2024-01-06T13:14:27;5.10;99.90
16247;DHT22;8231;50.866;7.944;2024-01-06T13:16:57;5.10;99.90
16247;DHT22;8231;50.866;7.944;2024-01-06T13:19:25;5.10;99.90
16247;DHT22;8231;50.866;7.944;2024-01-06T13:21:55;5.00;99.90
16247;DHT22;8231;50.866;7.944;2024-01-06T13:24:23;5.10;99.90
16247;DHT22;8231;50.866;7.944;2024-01-06T13:26:52;5.00;99.90
16247;DHT22;8231;50.866;7.944;2024-01-06T13:29:21;5.00;99.90
16247;DHT22;8231;50.866;7.944;2024-01-06T13:31:49;5.00;99.90
16247;DHT22;8231;50.866;7.944;2024-01-06T13:34:20;5.00;99.90
16247;DHT22;8231;50.866;7.944;2024-01-06T13:37:10;5.00;99.90
16247;DHT22;8231;50.866;7.944;2024-01-06T13:39:39;5.00;99.90
16247;DHT22;8231;50.866;7.944;2024-01-06T13:42:07;4.90;99.90
16247;DHT22;8231;50.866;7.944;2024-01-06T13:44:36;4.90;99.90
16247;DHT22;8231;50.866;7.944;2024-01-06T13:47:04;4.90;99.90
16247;DHT22;8231;50.866;7.944;2024-01-06T13:49:33;4.90;99.90
16247;DHT22;8231;50.866;7.944;2024-01-06T13:52:02;4.90;99.90
16247;DHT22;8231;50.866;7.944;2024-01-06T13:54:32;4.90;99.90
16247;DHT22;8231;50.866;7.944;2024-01-06T13:57:00;4.90;99.90
16247;DHT22;8231;50.866;7.944;2024-01-06T13:59:28;4.90;99.90
16247;DHT22;8231;50.866;7.944;2024-01-06T14:01:56;4.90;99.90
16247;DHT22;8231;50.866;7.944;2024-01-06T14:04:25;4.90;99.90
16247;DHT22;8231;50.866;7.944;2024-01-06T14:06:53;4.90;99.90
16247;DHT22;8231;50.866;7.944;2024-01-06T14:09:26;4.90;99.90
16247;DHT22;8231;50.866;7.944;2024-01-06T14:11:56;4.90;99.90
16247;DHT22;8231;50.866;7.944;2024-01-06T14:14:24;4.90;99.90
16247;DHT22;8231;50.866;7.944;2024-01-06T14:16:53;4.90;99.90
16247;DHT22;8231;50.866;7.944;2024-01-06T14:19:21;4.90;99.90
16247;DHT22;8231;50.866;7.944;2024-01-06T14:21:50;5.00;99.90
16247;DHT22;8231;50.866;7.944;2024-01-06T14:24:19;4.90;99.90
16247;DHT22;8231;50.866;7.944;2024-01-06T14:26:51;4.90;99.90
16247;DHT22;8231;50.866;7.944;2024-01-06T14:29:21;4.90;99.90
16247;DHT22;8231;50.866;7.944;2024-01-06T14:31:49;4.90;99.90
16247;DHT22;8231;50.866;7.944;2024-01-06T14:34:18;4.90;99.90
16247;DHT22;8231;50.866;7.944;2024-01-06T14:36:46;4.90;99.90
16247;DHT22;8231;50.866;7.944;2024-01-06T14:39:15;4.90;99.90
16247;DHT22;8231;50.866;7.944;2024-01-06T14:41:46;4.80;99.90
16247;DHT22;8231;50.866;7.944;2024-01-06T14:44:14;4.80;99.90
16247;DHT22;8231;50.866;7.944;2024-01-06T14:46:43;4.80;99.90
16247;DHT22;8231;50.866;7.944;2024-01-06T14:49:12;4.80;99.90
16247;DHT22;8231;50.866;7.944;2024-01-06T14:51:40;4.80;99.90
16247;DHT22;8231;50.866;7.944;2024-01-06T14:54:08;4.80;99.90
16247;DHT22;8231;50.866;7.944;2024-01-06T14:56:39;4.70;99.90
16247;DHT22;8231;50.866;7.944;2024-01-06T14:59:07;4.70;99.90
16247;DHT22;8231;50.866;7.944;2024-01-06T15:01:36;4.70;99.90
16247;DHT22;8231;50.866;7.944;2024-01-06T15:04:07;4.70;99.90
16247;DHT22;8231;50.866;7.944;2024-01-06T15:06:35;4.70;99.90
16247;DHT22;8231;50.866;7.944;2024-01-06T15:09:03;4.70;99.90
16247;DHT22;8231;50.866;7.944;2024-01-06T15:11:32;4.70;99.90
16247;DHT22;8231;50.866;7.944;2024-01-06T15:14:00;4.60;99.90
16247;DHT22;8231;50.866;7.944;2024-01-06T15:16:31;4.60;99.90
16247;DHT22;8231;50.866;7.944;2024-01-06T15:18:59;4.60;99.90
16247;DHT22;8231;50.866;7.944;2024-01-06T15:21:29;4.80;99.90
16247;DHT22;8231;50.866;7.944;2024-01-06T15:24:00;4.60;99.90
16247;DHT22;8231;50.866;7.944;2024-01-06T15:26:29;4.80;99.90
16247;DHT22;8231;50.866;7.944;2024-01-06T15:28:57;4.60;99.90
16247;DHT22;8231;50.866;7.944;2024-01-06T15:31:29;4.80;99.90
16247;DHT22;8231;50.866;7.944;2024-01-06T15:33:58;4.60;99.90
16247;DHT22;8231;50.866;7.944;2024-01-06T15:36:28;4.50;99.90
16247;DHT22;8231;50.866;7.944;2024-01-06T15:38:56;4.50;99.90
16247;DHT22;8231;50.866;7.944;2024-01-06T15:41:24;4.50;99.90
16247;DHT22;8231;50.866;7.944;2024-01-06T15:43:52;4.50;99.90
16247;DHT22;8231;50.866;7.944;2024-01-06T15:46:21;4.40;99.90
16247;DHT22;8231;50.866;7.944;2024-01-06T15:48:49;4.40;99.90
16247;DHT22;8231;50.866;7.944;2024-01-06T15:51:17;4.40;99.90
16247;DHT22;8231;50.866;7.944;2024-01-06T15:53:47;4.50;99.90
16247;DHT22;8231;50.866;7.944;2024-01-06T15:56:15;4.40;99.90
16247;DHT22;8231;50.866;7.944;2024-01-06T15:58:43;4.40;99.90
16247;DHT22;8231;50.866;7.944;2024-01-06T16:01:11;4.40;99.90
16247;DHT22;8231;50.866;7.944;2024-01-06T16:03:40;4.40;99.90
16247;DHT22;8231;50.866;7.944;2024-01-06T16:06:08;4.40;99.90
16247;DHT22;8231;50.866;7.944;2024-01-06T16:08:36;4.40;99.90
16247;DHT22;8231;50.866;7.944;2024-01-06T16:11:06;4.40;99.90
16247;DHT22;8231;50.866;7.944;2024-01-06T16:13:35;4.40;99.90